Time;durP1;ratioP1;P1;durP2;ratioP2;P2;SDS_P1;SDS_P2;PMS_P1;PMS_P2;Temp;Humidity;BMP_temperature;BMP_pressure;BME280_temperature;BME280_humidity;BME280_pressure;Samples;Min_cycle;Max_cycle;Signal;HPM_P1;HPM_P2
2023/04/10 00:02:18;;;;;;;6.22;2.70;;;13.40;70.40;;;;;;5044328;28;20030;-55
2023/04/10 00:04:43;;;;;;;9.45;3.17;;;13.40;70.40;;;;;;5027844;28;20049;-55
2023/04/10 00:07:09;;;;;;;8.98;3.15;;;13.40;70.50;;;;;;5045702;28;20026;-55
2023/04/10 00:09:35;;;;;;;10.38;3.30;;;13.40;70.50;;;;;;5044096;28;20025;-56
2023/04/10 00:12:00;;;;;;;7.82;3.20;;;13.30;70.60;;;;;;5045425;28;20041;-57
2023/04/10 00:14:26;;;;;;;7.30;3.55;;;13.30;70.60;;;;;;5045529;28;20026;-57
2023/04/10 00:16:52;;;;;;;5.85;2.90;;;13.30;70.80;;;;;;5044055;28;20030;-57
2023/04/10 00:19:17;;;;;;;5.38;2.97;;;13.20;70.70;;;;;;5045451;28;20473;-57
2023/04/10 00:21:43;;;;;;;6.90;3.15;;;13.20;70.80;;;;;;5043908;28;20076;-56
2023/04/10 00:24:08;;;;;;;7.90;3.10;;;13.20;71.50;;;;;;5043844;28;20029;-57
2023/04/10 00:26:34;;;;;;;7.35;3.40;;;13.20;71.00;;;;;;5027965;28;20497;-56
2023/04/10 00:29:00;;;;;;;7.32;3.33;;;13.10;70.90;;;;;;5043942;28;20458;-57
2023/04/10 00:31:26;;;;;;;7.38;3.00;;;13.20;71.00;;;;;;5027324;28;20034;-56
2023/04/10 00:33:51;;;;;;;5.80;3.03;;;13.10;70.90;;;;;;5045316;28;20017;-57
2023/04/10 00:36:17;;;;;;;5.75;3.10;;;13.10;70.90;;;;;;5045114;28;20128;-57
2023/04/10 00:38:43;;;;;;;5.88;3.13;;;13.10;71.10;;;;;;5044097;28;20025;-56
2023/04/10 00:41:08;;;;;;;4.47;3.15;;;13.00;71.00;;;;;;5045286;28;20057;-57
2023/04/10 00:43:34;;;;;;;6.03;3.40;;;13.00;71.20;;;;;;5027208;28;20021;-56
2023/04/10 00:46:00;;;;;;;8.15;3.10;;;13.00;71.00;;;;;;5045130;28;20514;-57
2023/04/10 00:48:26;;;;;;;6.35;3.35;;;13.00;71.20;;;;;;5043763;28;20030;-57
2023/04/10 00:50:51;;;;;;;4.13;2.78;;;13.00;71.20;;;;;;5043601;28;20025;-57
2023/04/10 00:53:17;;;;;;;4.93;3.10;;;12.90;71.30;;;;;;5010813;28;20037;-56
2023/04/10 00:55:43;;;;;;;8.18;3.50;;;12.90;71.30;;;;;;5028031;28;20021;-57
2023/04/10 00:58:13;;;;;;;3.72;3.00;;;12.90;71.30;;;;;;5048661;28;20030;-57
2023/04/10 01:00:39;;;;;;;5.57;3.30;;;12.90;71.40;;;;;;5049048;28;20021;-56
2023/04/10 01:03:04;;;;;;;5.28;3.05;;;12.90;71.40;;;;;;5047321;28;20093;-57
2023/04/10 01:05:38;;;;;;;8.02;3.38;;;12.90;71.50;;;;;;5031138;28;20029;-57
2023/04/10 01:08:31;;;;;;;8.60;3.08;;;12.80;72.10;;;;;;5048128;28;20034;-56
2023/04/10 01:11:02;;;;;;;6.95;3.47;;;12.80;71.40;;;;;;5047940;28;20097;-57
2023/04/10 01:13:31;;;;;;;6.72;3.40;;;12.80;71.50;;;;;;5047422;28;20029;-56
2023/04/10 01:16:01;;;;;;;6.78;3.22;;;12.70;71.50;;;;;;5047353;28;20029;-56
2023/04/10 01:18:39;;;;;;;6.25;3.72;;;12.70;71.60;;;;;;5030988;28;20021;-56
2023/04/10 01:21:06;;;;;;;4.60;3.10;;;12.70;72.40;;;;;;5048482;28;20041;-56
2023/04/10 01:24:06;;;;;;;8.55;3.20;;;12.60;71.80;;;;;;5030722;28;20076;-57
2023/04/10 01:27:01;;;;;;;4.13;3.10;;;12.60;71.80;;;;;;5048558;28;20029;-57
2023/04/10 01:29:28;;;;;;;9.60;3.97;;;12.60;71.90;;;;;;5037478;28;20059;-56
2023/04/10 01:31:57;;;;;;;5.15;3.35;;;12.60;71.80;;;;;;5030494;28;20087;-56
2023/04/10 01:34:29;;;;;;;7.03;3.20;;;12.50;72.50;;;;;;5030639;28;20052;-56
2023/04/10 01:37:01;;;;;;;8.70;3.67;;;12.60;71.90;;;;;;5031194;28;20071;-57
2023/04/10 01:39:27;;;;;;;6.18;3.70;;;12.50;71.90;;;;;;5031479;28;20018;-57
2023/04/10 01:41:52;;;;;;;6.05;3.25;;;12.50;71.90;;;;;;5030452;28;20036;-56
2023/04/10 01:44:21;;;;;;;8.02;3.70;;;12.50;72.00;;;;;;5046693;28;20025;-56
2023/04/10 01:46:47;;;;;;;5.53;2.90;;;12.40;71.90;;;;;;5030515;28;20046;-56
2023/04/10 01:49:13;;;;;;;5.45;3.42;;;12.40;72.00;;;;;;5029898;28;20029;-57
2023/04/10 01:51:38;;;;;;;3.97;3.50;;;12.40;72.00;;;;;;5030041;28;20060;-56
2023/04/10 01:54:04;;;;;;;3.80;2.72;;;12.40;72.10;;;;;;5047967;28;20036;-56
2023/04/10 01:56:30;;;;;;;4.32;3.00;;;12.40;72.10;;;;;;5046552;28;20393;-56
2023/04/10 01:58:55;;;;;;;5.63;3.47;;;12.40;71.90;;;;;;5047959;28;20083;-56
2023/04/10 02:01:21;;;;;;;4.85;3.63;;;12.40;72.10;;;;;;5030022;28;20053;-56
2023/04/10 02:03:47;;;;;;;5.03;3.20;;;12.40;72.20;;;;;;5029880;28;20033;-56
2023/04/10 02:06:26;;;;;;;4.95;3.25;;;12.30;72.20;;;;;;5047300;28;20081;-56
2023/04/10 02:09:11;;;;;;;8.07;3.85;;;12.30;72.90;;;;;;5031478;28;20468;-56
2023/04/10 02:11:57;;;;;;;7.73;4.00;;;12.20;72.30;;;;;;5047841;28;20060;-57
2023/04/10 02:14:23;;;;;;;;;;;12.20;72.40;;;;;;5046669;28;20264;-57
2023/04/10 02:16:50;;;;;;;;;;;12.20;72.30;;;;;;5082510;28;19909;-56
2023/04/10 02:19:15;;;;;;;;;;;12.20;72.40;;;;;;5082181;28;19917;-56
2023/04/10 02:21:41;;;;;;;7.43;3.25;;;12.20;72.50;;;;;;5079221;28;19913;-57
2023/04/10 02:24:06;;;;;;;5.53;3.53;;;12.20;72.40;;;;;;5029995;28;20429;-57
2023/04/10 02:26:51;;;;;;;4.82;3.40;;;12.10;72.50;;;;;;5029335;28;20042;-56
2023/04/10 02:29:16;;;;;;;4.35;3.83;;;12.10;72.50;;;;;;5045891;28;20501;-56
2023/04/10 02:31:42;;;;;;;8.10;3.85;;;12.10;72.80;;;;;;5047209;28;20033;-56
2023/04/10 02:34:08;;;;;;;4.97;3.13;;;12.10;72.70;;;;;;5047060;28;20037;-56
2023/04/10 02:36:37;;;;;;;4.32;3.30;;;12.10;72.60;;;;;;5047111;28;20390;-56
2023/04/10 02:39:03;;;;;;;7.40;3.08;;;12.00;72.70;;;;;;5047143;28;20034;-56
2023/04/10 02:41:28;;;;;;;4.95;3.45;;;12.00;72.80;;;;;;5046901;28;20204;-56
2023/04/10 02:43:54;;;;;;;4.65;3.92;;;12.00;72.80;;;;;;5045652;28;20088;-56
2023/04/10 02:46:19;;;;;;;4.60;3.63;;;12.00;72.70;;;;;;5045716;28;20057;-56
2023/04/10 02:48:45;;;;;;;3.85;3.30;;;11.90;72.80;;;;;;5028836;28;20028;-56
2023/04/10 02:51:11;;;;;;;5.07;3.45;;;11.90;72.90;;;;;;5046685;28;20076;-57
2023/04/10 02:53:36;;;;;;;4.32;3.75;;;11.90;73.00;;;;;;5031639;28;20022;-55
2023/04/10 02:56:02;;;;;;;4.65;3.40;;;11.80;72.90;;;;;;5047961;28;20556;-56
2023/04/10 02:58:29;;;;;;;7.18;3.65;;;11.80;73.00;;;;;;5045474;28;20037;-57
2023/04/10 03:00:55;;;;;;;4.05;3.65;;;11.80;73.00;;;;;;5046635;28;20029;-57
2023/04/10 03:03:21;;;;;;;5.53;3.80;;;11.80;73.10;;;;;;5046930;28;20041;-56
2023/04/10 03:05:48;;;;;;;4.00;3.55;;;11.80;73.00;;;;;;5045402;28;20428;-57
2023/04/10 03:08:14;;;;;;;4.43;3.75;;;11.80;73.10;;;;;;5045274;28;20101;-57
2023/04/10 03:10:42;;;;;;;6.07;3.78;;;11.80;73.10;;;;;;5045467;28;20037;-56
2023/04/10 03:13:07;;;;;;;4.75;3.53;;;11.70;73.10;;;;;;5028856;28;20064;-59
2023/04/10 03:15:33;;;;;;;5.30;3.70;;;11.70;73.10;;;;;;5045135;28;20038;-56
2023/04/10 03:17:58;;;;;;;4.10;3.70;;;11.70;73.20;;;;;;5046076;28;20121;-56
2023/04/10 03:20:24;;;;;;;4.57;4.07;;;11.70;73.20;;;;;;5045783;28;20058;-57
2023/04/10 03:22:49;;;;;;;5.15;4.22;;;11.60;73.30;;;;;;5029960;28;20044;-56
2023/04/10 03:25:15;;;;;;;4.65;3.47;;;11.60;73.20;;;;;;5046653;28;20033;-56
2023/04/10 03:27:41;;;;;;;4.65;3.72;;;11.60;73.20;;;;;;5045039;28;20041;-57
2023/04/10 03:30:07;;;;;;;4.68;3.78;;;11.60;73.20;;;;;;5046403;28;20543;-56
2023/04/10 03:32:32;;;;;;;4.53;4.13;;;11.50;73.20;;;;;;5028096;28;20045;-56
2023/04/10 03:34:58;;;;;;;9.43;3.80;;;11.60;73.30;;;;;;5044798;28;20033;-56
2023/04/10 03:37:26;;;;;;;4.70;3.42;;;11.60;73.40;;;;;;5046036;28;20018;-56
2023/04/10 03:39:52;;;;;;;4.38;3.22;;;11.50;73.40;;;;;;5045832;28;20477;-57
2023/04/10 03:42:17;;;;;;;4.88;3.78;;;11.50;73.50;;;;;;5045905;28;20036;-56
2023/04/10 03:44:43;;;;;;;4.15;3.60;;;11.50;73.60;;;;;;5044640;28;20071;-56
2023/04/10 03:47:08;;;;;;;5.50;4.07;;;11.40;73.40;;;;;;5044585;28;20021;-57
2023/04/10 03:49:34;;;;;;;4.55;4.10;;;11.40;74.10;;;;;;5044586;28;20493;-56
2023/04/10 03:52:00;;;;;;;4.22;3.83;;;11.40;73.40;;;;;;5044081;28;20057;-56
2023/04/10 03:54:25;;;;;;;5.35;3.78;;;11.40;73.50;;;;;;5011071;28;20358;-56
2023/04/10 03:56:51;;;;;;;5.25;4.00;;;11.40;73.60;;;;;;5046445;28;20120;-56
2023/04/10 03:59:16;;;;;;;6.25;3.90;;;11.40;73.60;;;;;;5044331;28;20143;-56
2023/04/10 04:01:42;;;;;;;6.38;4.22;;;11.40;73.70;;;;;;5044497;28;20033;-57
2023/04/10 04:04:07;;;;;;;6.53;3.97;;;11.40;73.70;;;;;;5027757;28;20079;-56
2023/04/10 04:06:33;;;;;;;5.07;3.80;;;11.30;73.70;;;;;;5045714;28;20085;-56
2023/04/10 04:08:59;;;;;;;6.72;4.68;;;11.30;73.70;;;;;;5028112;28;20033;-56
2023/04/10 04:11:24;;;;;;;7.20;3.90;;;11.30;73.70;;;;;;5027445;28;20486;-57
2023/04/10 04:13:50;;;;;;;4.43;4.00;;;11.30;73.80;;;;;;5044272;28;20034;-56
2023/04/10 04:16:15;;;;;;;4.82;3.88;;;11.20;73.80;;;;;;5045398;28;20382;-56
2023/04/10 04:18:41;;;;;;;4.10;3.70;;;11.20;73.80;;;;;;5044031;28;20034;-56
2023/04/10 04:21:07;;;;;;;4.20;3.80;;;11.20;73.90;;;;;;5044212;28;20105;-56
2023/04/10 04:23:33;;;;;;;5.10;4.60;;;11.20;73.90;;;;;;5043573;28;20370;-56
2023/04/10 04:25:58;;;;;;;4.28;3.70;;;11.20;74.00;;;;;;5043826;28;20057;-56
2023/04/10 04:28:24;;;;;;;3.92;3.53;;;11.20;73.90;;;;;;5043786;28;20034;-56
2023/04/10 04:30:49;;;;;;;4.22;3.83;;;11.20;74.00;;;;;;5043738;28;20037;-56
2023/04/10 04:33:15;;;;;;;6.28;4.15;;;11.20;74.50;;;;;;5045173;28;20093;-56
2023/04/10 04:35:40;;;;;;;5.40;4.13;;;11.20;74.00;;;;;;5043956;28;20029;-56
2023/04/10 04:38:06;;;;;;;4.20;3.80;;;11.20;73.90;;;;;;5027031;28;20032;-56
2023/04/10 04:40:32;;;;;;;5.40;4.22;;;11.10;74.00;;;;;;5045269;28;20092;-56
2023/04/10 04:42:57;;;;;;;4.70;4.13;;;11.10;74.10;;;;;;5027165;28;20112;-56
2023/04/10 04:45:23;;;;;;;4.35;3.95;;;11.10;74.10;;;;;;5045109;28;20037;-57
2023/04/10 04:47:49;;;;;;;4.95;4.40;;;11.10;74.10;;;;;;5043791;28;20033;-56
2023/04/10 04:50:14;;;;;;;4.65;4.25;;;11.00;74.10;;;;;;5045079;28;20499;-56
2023/04/10 04:52:40;;;;;;;5.80;4.30;;;11.10;74.20;;;;;;5043381;28;20044;-56
2023/04/10 04:55:07;;;;;;;4.25;3.88;;;11.10;74.20;;;;;;5043903;28;20021;-55
2023/04/10 04:57:32;;;;;;;7.80;4.40;;;11.00;74.10;;;;;;5043792;28;20099;-56
2023/04/10 04:59:58;;;;;;;4.43;4.03;;;11.00;74.20;;;;;;5027463;28;20025;-56
2023/04/10 05:02:24;;;;;;;5.03;4.00;;;11.00;74.10;;;;;;5044870;28;20025;-57
2023/04/10 05:04:49;;;;;;;4.50;4.10;;;10.90;74.20;;;;;;5043565;28;20477;-56
2023/04/10 05:07:15;;;;;;;4.40;4.00;;;11.00;74.20;;;;;;5027109;28;20029;-56
2023/04/10 05:09:41;;;;;;;4.57;3.60;;;10.90;74.30;;;;;;5010477;28;20038;-56
2023/04/10 05:12:06;;;;;;;5.93;4.85;;;11.00;74.90;;;;;;5043383;28;20029;-57
2023/04/10 05:14:32;;;;;;;5.70;4.22;;;10.90;74.30;;;;;;5043591;28;20060;-56
2023/04/10 05:16:57;;;;;;;5.63;4.25;;;10.90;74.30;;;;;;5043347;28;20026;-56
2023/04/10 05:19:23;;;;;;;4.45;3.97;;;10.90;74.30;;;;;;5045025;28;20033;-56
2023/04/10 05:21:48;;;;;;;5.00;4.40;;;10.90;74.40;;;;;;5043398;28;20125;-56
2023/04/10 05:24:14;;;;;;;4.68;4.03;;;10.90;74.50;;;;;;5043643;28;20052;-56
2023/04/10 05:26:41;;;;;;;4.60;4.07;;;10.90;74.50;;;;;;5044785;28;20117;-56
2023/04/10 05:29:07;;;;;;;5.82;4.25;;;10.80;74.40;;;;;;5043217;28;20116;-56
2023/04/10 05:31:32;;;;;;;6.00;4.53;;;10.80;74.40;;;;;;5044781;28;20063;-56
2023/04/10 05:33:58;;;;;;;6.78;4.75;;;10.80;74.50;;;;;;5044507;28;20459;-56
2023/04/10 05:36:23;;;;;;;5.45;4.70;;;10.80;74.60;;;;;;5010335;28;20033;-56
2023/04/10 05:38:49;;;;;;;6.65;4.75;;;10.80;74.50;;;;;;5026953;28;20048;-56
2023/04/10 05:41:15;;;;;;;5.03;4.35;;;10.80;74.50;;;;;;5044732;28;20021;-56
2023/04/10 05:43:40;;;;;;;7.40;4.63;;;10.80;74.60;;;;;;5047318;28;20044;-56
2023/04/10 05:46:06;;;;;;;4.93;4.53;;;10.80;74.60;;;;;;5047267;28;20493;-56
2023/04/10 05:48:31;;;;;;;5.72;4.60;;;10.80;74.60;;;;;;5030484;28;20034;-56
2023/04/10 05:50:57;;;;;;;5.30;4.65;;;10.80;74.70;;;;;;5048765;28;20037;-56
2023/04/10 05:53:30;;;;;;;5.60;4.85;;;10.70;74.60;;;;;;5046837;28;20025;-56
2023/04/10 05:55:56;;;;;;;4.70;4.30;;;10.70;74.60;;;;;;5046885;28;20041;-56
2023/04/10 05:58:21;;;;;;;5.40;4.65;;;10.80;74.50;;;;;;5047950;28;20037;-56
2023/04/10 06:00:47;;;;;;;4.85;4.20;;;10.70;74.60;;;;;;5046634;28;20026;-56
2023/04/10 06:03:12;;;;;;;4.47;4.00;;;10.70;74.60;;;;;;5046727;28;20034;-56
2023/04/10 06:05:38;;;;;;;4.95;4.10;;;10.70;74.60;;;;;;5046856;28;20037;-56
2023/04/10 06:08:03;;;;;;;4.82;4.32;;;10.70;74.60;;;;;;5046401;28;20040;-56
2023/04/10 06:10:29;;;;;;;5.25;4.65;;;10.70;74.70;;;;;;5047478;28;20029;-56
2023/04/10 06:12:55;;;;;;;4.82;4.25;;;10.70;74.70;;;;;;5047819;28;20475;-56
2023/04/10 06:15:21;;;;;;;6.28;4.88;;;10.70;74.70;;;;;;5046548;28;20094;-56
2023/04/10 06:17:46;;;;;;;5.10;4.40;;;10.70;74.70;;;;;;5046268;28;20025;-56
2023/04/10 06:20:12;;;;;;;7.53;4.80;;;10.70;74.70;;;;;;5046342;28;20129;-56
2023/04/10 06:22:37;;;;;;;6.13;4.85;;;10.60;74.80;;;;;;5047586;28;20033;-56
2023/04/10 06:25:04;;;;;;;5.35;4.85;;;10.70;74.90;;;;;;5046236;28;20348;-56
2023/04/10 06:27:30;;;;;;;5.57;5.00;;;10.60;74.90;;;;;;5047299;28;20037;-56
2023/04/10 06:29:55;;;;;;;6.05;5.45;;;10.60;75.00;;;;;;5029520;28;20044;-56
2023/04/10 06:32:21;;;;;;;6.07;5.47;;;10.60;75.00;;;;;;5046186;28;20036;-56
2023/04/10 06:34:47;;;;;;;6.00;5.40;;;10.60;75.00;;;;;;5047081;28;20393;-57
2023/04/10 06:37:12;;;;;;;5.57;4.82;;;10.60;75.00;;;;;;5047086;28;20014;-56
2023/04/10 06:39:38;;;;;;;5.45;4.93;;;10.60;75.00;;;;;;5045963;28;20033;-56
2023/04/10 06:42:03;;;;;;;5.95;5.35;;;10.60;75.10;;;;;;5047231;28;20029;-57
2023/04/10 06:44:29;;;;;;;5.07;4.57;;;10.60;75.10;;;;;;5029541;28;20049;-57
2023/04/10 06:46:55;;;;;;;6.25;5.65;;;10.50;75.20;;;;;;5045827;28;20026;-56
2023/04/10 06:49:20;;;;;;;6.53;5.15;;;10.60;75.30;;;;;;5046811;28;20064;-57
2023/04/10 06:51:47;;;;;;;6.55;5.85;;;10.50;75.10;;;;;;5029052;28;20092;-56
2023/04/10 06:54:13;;;;;;;5.57;4.97;;;10.50;75.70;;;;;;5045771;28;20025;-56
2023/04/10 06:56:38;;;;;;;6.10;5.07;;;10.50;75.30;;;;;;5046866;28;20034;-57
2023/04/10 06:59:04;;;;;;;5.97;5.38;;;10.50;75.30;;;;;;5046842;28;20032;-56
2023/04/10 07:01:29;;;;;;;6.07;5.47;;;10.50;75.40;;;;;;5029014;28;20065;-56
2023/04/10 07:03:55;;;;;;;6.30;5.38;;;10.50;75.40;;;;;;5045410;28;20036;-57
2023/04/10 07:06:21;;;;;;;6.20;5.60;;;10.50;75.40;;;;;;5028774;28;20083;-56
2023/04/10 07:08:48;;;;;;;6.55;5.68;;;10.40;75.40;;;;;;5028831;28;20080;-56
2023/04/10 07:11:13;;;;;;;5.95;5.40;;;10.50;75.50;;;;;;5045408;28;20026;-57
2023/04/10 07:13:39;;;;;;;6.65;5.50;;;10.40;75.50;;;;;;5045219;28;20033;-56
2023/04/10 07:16:07;;;;;;;6.18;5.63;;;10.40;75.70;;;;;;5046399;28;20032;-56
2023/04/10 07:18:34;;;;;;;6.57;5.57;;;10.40;75.70;;;;;;5044988;28;20048;-56
2023/04/10 07:20:59;;;;;;;6.10;5.50;;;10.50;75.80;;;;;;5046486;28;20525;-56
2023/04/10 07:23:25;;;;;;;6.65;5.78;;;10.50;75.80;;;;;;5028395;28;20041;-56
2023/04/10 07:25:51;;;;;;;6.00;5.43;;;10.40;75.80;;;;;;5044932;28;20034;-57
2023/04/10 07:28:17;;;;;;;5.97;5.45;;;10.50;75.80;;;;;;5028690;28;20389;-56
2023/04/10 07:30:42;;;;;;;6.60;5.30;;;10.40;75.70;;;;;;5046269;28;20039;-56
2023/04/10 07:33:08;;;;;;;6.28;5.68;;;10.40;75.80;;;;;;5046162;28;20048;-56
2023/04/10 07:35:34;;;;;;;6.05;5.45;;;10.40;76.70;;;;;;5046082;28;20457;-57
2023/04/10 07:38:00;;;;;;;5.65;5.13;;;10.40;76.00;;;;;;5045761;28;20029;-56
2023/04/10 07:40:25;;;;;;;6.13;5.53;;;10.40;76.10;;;;;;5027925;28;20125;-57
2023/04/10 07:42:51;;;;;;;5.78;5.25;;;10.40;76.10;;;;;;5045833;28;20040;-56
2023/04/10 07:45:16;;;;;;;7.20;5.82;;;10.40;76.00;;;;;;5045720;28;20554;-56
2023/04/10 07:47:42;;;;;;;7.25;5.55;;;10.40;76.00;;;;;;5045573;28;20124;-56
2023/04/10 07:50:08;;;;;;;5.60;5.10;;;10.40;76.00;;;;;;5045589;28;20381;-56
2023/04/10 07:52:33;;;;;;;6.35;5.75;;;10.40;76.10;;;;;;5043825;28;20061;-56
2023/04/10 07:55:02;;;;;;;6.35;5.45;;;10.50;76.10;;;;;;5044332;28;20040;-57
2023/04/10 07:57:28;;;;;;;5.97;5.38;;;10.40;76.00;;;;;;5027900;28;20025;-56
2023/04/10 07:59:54;;;;;;;6.00;5.15;;;10.50;76.20;;;;;;5045487;28;20089;-56
2023/04/10 08:02:20;;;;;;;5.90;5.38;;;10.40;76.20;;;;;;5044046;28;20040;-56
2023/04/10 08:04:45;;;;;;;5.97;5.38;;;10.40;76.20;;;;;;5045116;28;20033;-56
2023/04/10 08:07:11;;;;;;;5.35;4.85;;;10.40;76.20;;;;;;5011031;28;20033;-56
2023/04/10 08:09:37;;;;;;;8.77;5.25;;;10.50;76.20;;;;;;5043904;28;20079;-56
2023/04/10 08:12:02;;;;;;;5.63;4.60;;;10.40;76.20;;;;;;5045322;28;20033;-56
2023/04/10 08:14:28;;;;;;;6.43;5.78;;;10.40;76.30;;;;;;5045398;28;20477;-56
2023/04/10 08:16:53;;;;;;;6.05;5.43;;;10.40;77.00;;;;;;5043823;28;20029;-56
2023/04/10 08:19:19;;;;;;;6.90;5.32;;;10.50;76.40;;;;;;5043556;28;20327;-56
2023/04/10 08:21:45;;;;;;;6.70;5.35;;;10.50;76.30;;;;;;5044095;28;20032;-56
2023/04/10 08:24:10;;;;;;;5.90;5.30;;;10.50;76.30;;;;;;5046584;28;20497;-56
2023/04/10 08:26:36;;;;;;;7.05;5.53;;;10.40;76.10;;;;;;5043698;28;20037;-56
2023/04/10 08:29:01;;;;;;;13.88;6.20;;;10.50;76.30;;;;;;5043691;28;20026;-56
2023/04/10 08:31:28;;;;;;;13.25;6.50;;;10.50;76.30;;;;;;5043663;28;20026;-56
2023/04/10 08:33:53;;;;;;;11.98;5.65;;;10.50;76.30;;;;;;5036222;28;20734;-57
2023/04/10 08:36:19;;;;;;;9.95;5.53;;;10.50;76.90;;;;;;5036197;28;20022;-56
2023/04/10 08:38:45;;;;;;;18.63;6.25;;;10.60;76.30;;;;;;5023866;28;20026;-57
2023/04/10 08:41:14;;;;;;;33.20;8.00;;;10.60;77.00;;;;;;5042483;28;20366;-56
2023/04/10 08:43:40;;;;;;;23.63;7.18;;;10.60;76.70;;;;;;5039153;28;20029;-56
2023/04/10 08:46:06;;;;;;;27.80;7.28;;;10.60;76.60;;;;;;5043564;28;20044;-56
2023/04/10 08:48:40;;;;;;;17.55;6.47;;;10.60;76.60;;;;;;5040705;28;20104;-56
2023/04/10 08:51:06;;;;;;;23.58;7.32;;;10.60;76.50;;;;;;5056127;28;20053;-56
2023/04/10 08:53:32;;;;;;;22.45;7.25;;;10.60;76.50;;;;;;5069402;28;20518;-56
2023/04/10 08:55:57;;;;;;;28.98;7.80;;;10.70;76.60;;;;;;5041180;28;20402;-56
2023/04/10 08:58:23;;;;;;;27.75;8.40;;;10.70;76.90;;;;;;5026462;28;20053;-56
2023/04/10 09:00:49;;;;;;;56.97;11.70;;;10.70;76.80;;;;;;5042867;28;20050;-56
2023/04/10 09:03:14;;;;;;;35.47;8.93;;;10.70;77.20;;;;;;5056687;28;20093;-56
2023/04/10 09:05:40;;;;;;;52.35;9.25;;;10.80;77.30;;;;;;5041965;28;20057;-55
2023/04/10 09:08:10;;;;;;;40.85;10.02;;;10.70;77.00;;;;;;5037463;28;20163;-55
2023/04/10 09:10:36;;;;;;;62.55;11.13;;;10.70;77.00;;;;;;5040867;28;20038;-55
2023/04/10 09:13:02;;;;;;;59.53;12.20;;;10.80;77.40;;;;;;5053573;28;20022;-55
2023/04/10 09:15:27;;;;;;;74.47;14.05;;;10.80;77.50;;;;;;5042440;28;20427;-55
2023/04/10 09:18:00;;;;;;;82.88;14.07;;;10.80;77.90;;;;;;5044274;28;20029;-54
2023/04/10 09:20:28;;;;;;;67.80;14.15;;;10.80;77.90;;;;;;5062413;28;20032;-54
2023/04/10 09:22:53;;;;;;;106.90;14.65;;;10.90;78.00;;;;;;5063471;28;20049;-55
2023/04/10 09:25:30;;;;;;;82.20;13.65;;;10.90;78.10;;;;;;5044339;28;20045;-55
2023/04/10 09:28:03;;;;;;;80.47;13.93;;;10.90;78.10;;;;;;5046557;28;20089;-55
2023/04/10 09:30:35;;;;;;;89.50;15.02;;;10.90;78.20;;;;;;5079387;28;20036;-55
2023/04/10 09:33:01;;;;;;;97.78;17.10;;;10.90;78.20;;;;;;5075953;28;20033;-55
2023/04/10 09:35:37;;;;;;;90.40;15.68;;;11.00;78.20;;;;;;5061164;28;20116;-55
2023/04/10 09:38:16;;;;;;;97.00;14.90;;;11.00;78.20;;;;;;5028114;28;20026;-55
2023/04/10 09:40:41;;;;;;;97.55;16.15;;;11.10;78.50;;;;;;5046412;28;20033;-54
2023/04/10 09:43:25;;;;;;;91.85;16.23;;;11.10;78.50;;;;;;5029809;28;20390;-55
2023/04/10 09:45:53;;;;;;;75.43;15.23;;;11.10;78.40;;;;;;5043399;28;20138;-55
2023/04/10 09:48:19;;;;;;;74.65;14.38;;;11.20;78.50;;;;;;5061655;28;20034;-55
2023/04/10 09:50:45;;;;;;;97.50;16.20;;;11.20;78.60;;;;;;5045771;28;20038;-55
2023/04/10 09:53:15;;;;;;;103.60;15.43;;;11.30;78.70;;;;;;5044639;28;20556;-54
2023/04/10 09:55:41;;;;;;;99.15;15.73;;;11.30;78.70;;;;;;5025274;28;20097;-55
2023/04/10 09:58:07;;;;;;;91.47;15.23;;;11.30;78.60;;;;;;5073227;28;20036;-55
2023/04/10 10:00:47;;;;;;;87.50;14.43;;;11.40;78.80;;;;;;5045728;28;20486;-56
2023/04/10 10:03:17;;;;;;;105.20;16.10;;;11.30;78.60;;;;;;5045175;28;20041;-55
2023/04/10 10:05:44;;;;;;;77.78;14.80;;;11.40;78.70;;;;;;5075674;28;20038;-55
2023/04/10 10:08:10;;;;;;;79.95;13.82;;;11.40;78.70;;;;;;5045191;28;20037;-55
2023/04/10 10:10:46;;;;;;;89.28;14.63;;;11.50;78.80;;;;;;5075272;28;20040;-55
2023/04/10 10:13:18;;;;;;;116.38;18.88;;;11.50;78.80;;;;;;5041638;28;20158;-54
2023/04/10 10:15:54;;;;;;;99.72;17.65;;;11.50;78.90;;;;;;5056368;28;20034;-55
2023/04/10 10:18:22;;;;;;;114.18;17.15;;;11.60;79.00;;;;;;5039993;28;20018;-55
2023/04/10 10:20:47;;;;;;;95.78;14.48;;;11.60;78.90;;;;;;5045636;28;20037;-55
2023/04/10 10:23:13;;;;;;;59.97;11.40;;;11.70;78.80;;;;;;5044107;28;20265;-55
2023/04/10 10:25:38;;;;;;;60.10;11.15;;;11.70;79.50;;;;;;5059766;28;20109;-55
2023/04/10 10:28:04;;;;;;;72.53;10.25;;;11.70;78.80;;;;;;5043892;28;20357;-55
2023/04/10 10:30:33;;;;;;;42.70;9.75;;;11.70;79.20;;;;;;5027369;28;20433;-55
2023/04/10 10:33:02;;;;;;;65.43;11.98;;;11.80;78.40;;;;;;5043758;28;20462;-55
2023/04/10 10:35:30;;;;;;;63.65;13.50;;;11.90;78.40;;;;;;5043661;28;20100;-55
2023/04/10 10:37:56;;;;;;;58.97;12.07;;;11.90;78.40;;;;;;5043747;28;20056;-55
2023/04/10 10:40:26;;;;;;;76.15;12.80;;;11.90;78.40;;;;;;5043872;28;20072;-55
2023/04/10 10:43:15;;;;;;;79.55;12.93;;;12.00;78.30;;;;;;5046789;28;20040;-55
2023/04/10 10:46:02;;;;;;;59.78;11.63;;;12.00;78.10;;;;;;5045121;28;20033;-55
2023/04/10 10:48:27;;;;;;;88.07;13.23;;;12.10;78.10;;;;;;5043264;28;20033;-55
2023/04/10 10:50:55;;;;;;;66.15;11.70;;;12.20;78.10;;;;;;5043057;28;20040;-55
2023/04/10 10:53:38;;;;;;;82.10;12.35;;;12.20;78.00;;;;;;5043042;28;20033;-55
2023/04/10 10:56:22;;;;;;;59.58;10.80;;;12.30;77.90;;;;;;5044563;28;20021;-55
2023/04/10 10:58:48;;;;;;;46.03;10.32;;;12.30;77.70;;;;;;5044827;28;20043;-55
2023/04/10 11:01:14;;;;;;;57.45;10.68;;;12.30;77.60;;;;;;5044835;28;20104;-55
2023/04/10 11:03:40;;;;;;;37.08;9.73;;;12.40;77.50;;;;;;5044933;28;20025;-55
2023/04/10 11:06:07;;;;;;;79.72;11.52;;;12.40;77.30;;;;;;5044639;28;20061;-55
2023/04/10 11:08:34;;;;;;;58.55;10.85;;;12.50;77.30;;;;;;5044672;28;20030;-55
2023/04/10 11:11:04;;;;;;;57.58;9.95;;;12.60;77.20;;;;;;5045857;28;20486;-55
2023/04/10 11:13:30;;;;;;;37.30;8.20;;;12.60;77.10;;;;;;5044615;28;20045;-55
2023/04/10 11:15:56;;;;;;;36.75;6.78;;;12.70;77.10;;;;;;5045968;28;20040;-55
2023/04/10 11:18:43;;;;;;;44.17;8.23;;;12.70;77.00;;;;;;5028086;28;20052;-55
2023/04/10 11:21:16;;;;;;;73.63;8.98;;;12.70;77.00;;;;;;5045757;28;20041;-55
2023/04/10 11:23:58;;;;;;;64.45;10.27;;;12.90;76.90;;;;;;5044609;28;20045;-55
2023/04/10 11:26:38;;;;;;;50.70;10.00;;;12.90;77.00;;;;;;5046030;28;20055;-55
2023/04/10 11:29:18;;;;;;;55.72;8.80;;;13.00;76.90;;;;;;5044392;28;20021;-55
2023/04/10 11:31:45;;;;;;;59.50;9.65;;;13.10;76.80;;;;;;5045503;28;20089;-55
2023/04/10 11:34:10;;;;;;;60.90;10.30;;;13.10;76.60;;;;;;5027738;28;20438;-54
2023/04/10 11:36:41;;;;;;;63.75;10.63;;;13.20;76.40;;;;;;5044141;28;20022;-55
2023/04/10 11:39:14;;;;;;;64.00;10.07;;;13.30;76.30;;;;;;5027441;28;20025;-55
2023/04/10 11:41:50;;;;;;;40.80;7.60;;;13.30;76.10;;;;;;5044081;28;20509;-55
2023/04/10 11:44:28;;;;;;;;;;;13.40;75.90;;;;;;5045981;28;20052;-55
2023/04/10 11:46:54;;;;;;;53.42;8.10;;;13.50;76.30;;;;;;5045194;28;19940;-55
2023/04/10 11:49:25;;;;;;;47.05;8.70;;;13.50;76.00;;;;;;5044159;28;20327;-55
2023/04/10 11:51:51;;;;;;;33.97;7.82;;;13.60;76.20;;;;;;5044874;28;20060;-55
2023/04/10 11:54:18;;;;;;;34.50;6.95;;;13.70;76.10;;;;;;5043874;28;20029;-55
2023/04/10 11:56:53;;;;;;;48.97;7.53;;;13.70;76.40;;;;;;5043505;28;20034;-55
2023/04/10 11:59:19;;;;;;;32.15;7.43;;;13.90;76.40;;;;;;5043557;28;20094;-55
2023/04/10 12:01:45;;;;;;;31.63;6.32;;;13.90;75.80;;;;;;5043522;28;20125;-55
2023/04/10 12:04:17;;;;;;;33.78;6.55;;;13.90;75.90;;;;;;5043582;28;20028;-55
2023/04/10 12:06:55;;;;;;;32.72;6.75;;;14.10;76.00;;;;;;5043554;28;20101;-55
2023/04/10 12:09:21;;;;;;;40.08;7.72;;;14.10;75.90;;;;;;5043478;28;20093;-55
2023/04/10 12:11:58;;;;;;;43.97;7.68;;;14.20;75.80;;;;;;5043513;28;20041;-55
2023/04/10 12:14:37;;;;;;;30.10;6.70;;;14.30;75.30;;;;;;5044759;28;20026;-55
2023/04/10 12:17:03;;;;;;;22.60;6.47;;;14.40;75.70;;;;;;5043348;28;20025;-54
2023/04/10 12:19:29;;;;;;;27.27;6.40;;;14.50;75.50;;;;;;5026859;28;20037;-55
2023/04/10 12:21:55;;;;;;;20.02;5.53;;;14.50;75.60;;;;;;5043295;28;20034;-55
2023/04/10 12:24:40;;;;;;;15.93;4.95;;;14.60;75.50;;;;;;5026724;28;20043;-55
2023/04/10 12:27:07;;;;;;;19.33;5.45;;;14.70;75.80;;;;;;5043405;28;20109;-54
2023/04/10 12:29:32;;;;;;;29.75;6.07;;;14.80;76.10;;;;;;5026957;28;20047;-55
2023/04/10 12:31:58;;;;;;;30.55;7.45;;;14.90;75.20;;;;;;5042929;28;20053;-55
2023/04/10 12:34:24;;;;;;;50.00;7.95;;;15.00;75.20;;;;;;5010388;28;20022;-55
2023/04/10 12:36:53;;;;;;;34.67;7.40;;;15.10;75.00;;;;;;5043054;28;20104;-54
2023/04/10 12:39:23;;;;;;;47.60;7.75;;;15.20;74.90;;;;;;5026493;28;20064;-55
2023/04/10 12:41:48;;;;;;;41.65;7.80;;;15.20;73.90;;;;;;5026810;28;20127;-55
2023/04/10 12:44:14;;;;;;;42.22;8.65;;;15.30;73.70;;;;;;5043108;28;20033;-55
2023/04/10 12:46:40;;;;;;;52.92;9.18;;;15.40;73.50;;;;;;5044461;28;20026;-55